Time;durP1;ratioP1;P1;durP2;ratioP2;P2;SDS_P1;SDS_P2;PMS_P1;PMS_P2;Temp;Humidity;BMP_temperature;BMP_pressure;BME280_temperature;BME280_humidity;BME280_pressure;Samples;Min_cycle;Max_cycle;Signal;HPM_P1;HPM_P2
2023/07/14 00:00:40;;;;;;;3.20;2.50;;;22.00;40.70;;;;;;20755;6705;280985;-77
2023/07/14 00:03:20;;;;;;;2.40;2.17;;;22.20;40.90;;;;;;20769;6705;334739;-75
2023/07/14 00:05:55;;;;;;;2.13;2.03;;;22.40;40.70;;;;;;20986;6705;116900;-76
2023/07/14 00:08:32;;;;;;;3.30;2.03;;;21.90;40.40;;;;;;20860;6705;116428;-74
2023/07/14 00:11:16;;;;;;;4.60;2.50;;;21.90;40.90;;;;;;20757;6705;309149;-74
2023/07/14 00:13:52;;;;;;;3.03;2.10;;;22.00;40.90;;;;;;20995;6703;117591;-76
2023/07/14 00:16:27;;;;;;;2.83;2.33;;;21.90;40.80;;;;;;20779;6704;274429;-75
2023/07/14 00:19:03;;;;;;;3.00;2.30;;;22.10;41.30;;;;;;20799;6689;120751;-77
2023/07/14 00:21:40;;;;;;;2.90;2.53;;;21.90;41.20;;;;;;20758;6705;276109;-77
2023/07/14 00:24:17;;;;;;;2.30;2.10;;;22.10;41.80;;;;;;21042;6687;116584;-77
2023/07/14 00:26:55;;;;;;;4.07;2.60;;;21.90;41.50;;;;;;20988;6687;186835;-76
2023/07/14 00:29:36;;;;;;;3.23;2.40;;;21.90;42.00;;;;;;20839;6687;303529;-76
2023/07/14 00:32:12;;;;;;;3.00;2.13;;;21.80;41.90;;;;;;21018;6687;116634;-76
2023/07/14 00:34:47;;;;;;;2.78;2.35;;;21.80;41.70;;;;;;20773;6687;303888;-76
2023/07/14 00:37:22;;;;;;;2.23;2.07;;;21.90;41.50;;;;;;20984;6687;117853;-75
2023/07/14 00:39:58;;;;;;;2.80;2.30;;;21.80;41.40;;;;;;20819;6687;308085;-77
2023/07/14 00:42:36;;;;;;;2.50;2.30;;;22.20;41.00;;;;;;20802;6687;303510;-77
2023/07/14 00:45:11;;;;;;;2.90;2.20;;;22.10;40.90;;;;;;20748;6687;304331;-75
2023/07/14 00:47:49;;;;;;;2.10;2.00;;;22.40;40.90;;;;;;20897;6687;119818;-74
2023/07/14 00:50:25;;;;;;;4.40;2.20;;;22.10;40.90;;;;;;20785;6687;308509;-76
2023/07/14 00:53:01;;;;;;;2.37;2.27;;;22.10;41.00;;;;;;20384;6743;120862;-74
2023/07/14 00:55:40;;;;;;;2.37;1.93;;;21.90;41.00;;;;;;21034;6687;116865;-75
2023/07/14 00:58:18;;;;;;;2.00;1.90;;;21.50;41.40;;;;;;20899;6687;122502;-74
2023/07/14 01:01:01;;;;;;;2.77;2.13;;;21.00;42.30;;;;;;21015;6687;117213;-81
2023/07/14 01:03:41;;;;;;;2.30;2.13;;;21.00;42.30;;;;;;21033;6687;117896;-75
2023/07/14 01:06:17;;;;;;;2.67;2.43;;;20.80;42.40;;;;;;20760;6708;280219;-76
2023/07/14 01:09:09;;;;;;;2.30;2.10;;;21.10;42.80;;;;;;20730;6731;117327;-76
2023/07/14 01:11:50;;;;;;;2.70;2.50;;;21.10;43.00;;;;;;20983;6705;119227;-76
2023/07/14 01:14:25;;;;;;;2.83;2.40;;;20.90;42.60;;;;;;20981;6705;118775;-75
2023/07/14 01:17:03;;;;;;;2.60;2.40;;;20.70;42.80;;;;;;20735;6705;305905;-75
2023/07/14 01:19:49;;;;;;;3.27;2.20;;;20.90;43.50;;;;;;21031;6687;120200;-75
2023/07/14 01:22:33;;;;;;;2.80;2.60;;;20.90;42.80;;;;;;21021;6687;117670;-75
2023/07/14 01:25:22;;;;;;;2.63;2.43;;;20.70;42.90;;;;;;21009;6687;123781;-76
2023/07/14 01:27:57;;;;;;;3.77;2.60;;;20.50;43.20;;;;;;20685;6743;306579;-78
2023/07/14 01:30:33;;;;;;;2.72;2.58;;;20.80;43.70;;;;;;20793;6686;309387;-79
2023/07/14 01:33:09;;;;;;;2.70;2.40;;;21.20;43.30;;;;;;20814;6687;304753;-77
2023/07/14 01:35:45;;;;;;;3.08;2.53;;;21.50;42.80;;;;;;20816;6687;303131;-76
2023/07/14 01:38:20;;;;;;;2.17;2.07;;;21.70;42.50;;;;;;20894;6687;116679;-77
2023/07/14 01:40:55;;;;;;;3.87;2.50;;;21.40;42.50;;;;;;20974;6687;122212;-76
2023/07/14 01:43:31;;;;;;;3.62;2.40;;;21.00;42.90;;;;;;20826;6687;277495;-76
2023/07/14 01:46:08;;;;;;;3.30;2.45;;;21.10;43.30;;;;;;20795;6687;326160;-76
2023/07/14 01:48:57;;;;;;;2.57;2.37;;;21.40;43.10;;;;;;20808;6743;119397;-75
2023/07/14 01:51:34;;;;;;;2.55;2.40;;;21.20;42.80;;;;;;20820;6687;304309;-76
2023/07/14 01:54:19;;;;;;;3.63;2.47;;;21.30;42.90;;;;;;21010;6687;116702;-75
2023/07/14 01:57:14;;;;;;;3.28;2.55;;;21.00;43.20;;;;;;20768;6687;332316;-76
2023/07/14 01:59:52;;;;;;;2.80;2.50;;;21.10;43.60;;;;;;21006;6687;116719;-77
2023/07/14 02:02:35;;;;;;;2.60;2.20;;;20.50;43.70;;;;;;21014;6687;120335;-76
2023/07/14 02:05:17;;;;;;;2.97;2.70;;;20.40;43.90;;;;;;20770;6708;305576;-73
2023/07/14 02:07:54;;;;;;;3.93;2.57;;;20.60;44.20;;;;;;20671;6705;307988;-75
2023/07/14 02:10:30;;;;;;;3.00;2.70;;;20.90;43.80;;;;;;20789;6688;331508;-76
2023/07/14 02:13:07;;;;;;;2.80;2.60;;;21.00;43.40;;;;;;20795;6688;304257;-75
2023/07/14 02:15:44;;;;;;;3.90;2.30;;;20.80;43.50;;;;;;20901;6731;117389;-75
2023/07/14 02:18:18;;;;;;;2.73;2.57;;;20.80;43.50;;;;;;20840;6720;122491;-76
2023/07/14 02:20:54;;;;;;;2.63;2.20;;;20.40;44.10;;;;;;20997;6686;119896;-76
2023/07/14 02:23:31;;;;;;;4.07;2.50;;;20.00;44.60;;;;;;20801;6686;275101;-77
2023/07/14 02:26:07;;;;;;;4.87;2.60;;;20.10;45.40;;;;;;21044;6686;120541;-76
2023/07/14 02:28:42;;;;;;;3.13;2.80;;;20.10;45.10;;;;;;20524;6764;306828;-75
2023/07/14 02:31:31;;;;;;;3.00;2.70;;;20.30;45.20;;;;;;20790;6687;308868;-75
2023/07/14 02:34:09;;;;;;;2.55;2.45;;;20.60;44.80;;;;;;20185;6765;276227;-76
2023/07/14 02:36:43;;;;;;;2.80;2.50;;;20.80;44.90;;;;;;20963;6705;126269;-76
2023/07/14 02:39:18;;;;;;;2.90;2.60;;;20.60;44.20;;;;;;20975;6704;116852;-76
2023/07/14 02:41:55;;;;;;;3.35;2.85;;;20.30;44.60;;;;;;20770;6705;324820;-75
2023/07/14 02:44:33;;;;;;;2.73;2.53;;;20.70;44.40;;;;;;20800;6690;309221;-75
2023/07/14 02:47:08;;;;;;;2.87;2.67;;;20.60;44.30;;;;;;20959;6705;117704;-75
2023/07/14 02:49:48;;;;;;;2.40;2.17;;;20.40;44.20;;;;;;20975;6705;116774;-74
2023/07/14 02:52:21;;;;;;;3.57;2.10;;;20.10;44.50;;;;;;20984;6705;119288;-75
2023/07/14 02:54:56;;;;;;;2.60;2.40;;;19.90;44.90;;;;;;20760;6705;307047;-76
2023/07/14 02:57:34;;;;;;;4.05;3.67;;;20.10;44.90;;;;;;20740;6690;336094;-76
2023/07/14 03:00:10;;;;;;;4.47;3.23;;;20.50;44.20;;;;;;20997;6690;116701;-76
2023/07/14 03:02:45;;;;;;;2.90;2.65;;;20.40;44.00;;;;;;20766;6690;340912;-76
2023/07/14 03:05:20;;;;;;;3.00;2.20;;;20.40;44.50;;;;;;21034;6690;119886;-76
2023/07/14 03:07:57;;;;;;;2.50;2.27;;;20.30;44.60;;;;;;20890;6690;269091;-76
2023/07/14 03:10:32;;;;;;;3.60;2.50;;;20.10;45.00;;;;;;20810;6690;304356;-75
2023/07/14 03:13:08;;;;;;;2.73;2.50;;;20.20;45.60;;;;;;20805;6690;276198;-75
2023/07/14 03:15:48;;;;;;;2.57;2.43;;;20.70;44.00;;;;;;20802;6694;303903;-75
2023/07/14 03:18:20;;;;;;;2.73;2.53;;;20.70;44.00;;;;;;20835;6705;120298;-76
2023/07/14 03:20:57;;;;;;;3.50;2.53;;;20.40;44.10;;;;;;20996;6705;117678;-75
2023/07/14 03:23:32;;;;;;;3.57;2.47;;;20.00;44.50;;;;;;20983;6705;117272;-75
2023/07/14 03:26:09;;;;;;;2.70;2.50;;;19.70;44.90;;;;;;21016;6690;116798;-76
2023/07/14 03:28:44;;;;;;;5.43;2.90;;;19.50;45.20;;;;;;20824;6690;117192;-74
2023/07/14 03:31:21;;;;;;;2.93;2.63;;;19.50;46.00;;;;;;20802;6690;299613;-75
2023/07/14 03:33:57;;;;;;;4.50;2.47;;;19.50;46.00;;;;;;21027;6690;116868;-75
2023/07/14 03:36:33;;;;;;;3.05;2.75;;;19.50;45.70;;;;;;20809;6690;333007;-76
2023/07/14 03:39:24;;;;;;;3.07;2.77;;;19.60;46.30;;;;;;20590;6694;278817;-75
2023/07/14 03:41:54;;;;;;;5.77;2.70;;;19.90;46.10;;;;;;20959;6705;121381;-74
2023/07/14 03:44:31;;;;;;;3.42;2.90;;;19.70;45.90;;;;;;20809;6690;303232;-74
2023/07/14 03:47:05;;;;;;;2.70;2.50;;;19.70;46.40;;;;;;20997;6690;120260;-72
2023/07/14 03:49:44;;;;;;;3.03;2.70;;;19.60;46.50;;;;;;20810;6690;312755;-74
2023/07/14 03:52:16;;;;;;;3.42;2.60;;;19.70;47.10;;;;;;20803;6690;333362;-74
2023/07/14 03:54:52;;;;;;;3.30;2.90;;;19.90;46.60;;;;;;20785;6693;304500;-73
2023/07/14 03:57:27;;;;;;;3.20;2.47;;;20.20;46.20;;;;;;20968;6705;116716;-72
2023/07/14 04:00:13;;;;;;;3.80;2.60;;;19.90;46.10;;;;;;20989;6705;117748;-73
2023/07/14 04:02:43;;;;;;;2.80;2.60;;;19.60;46.60;;;;;;20968;6705;118968;-73
2023/07/14 04:05:22;;;;;;;4.40;2.57;;;19.40;46.90;;;;;;20998;6705;123179;-72
2023/07/14 04:07:54;;;;;;;2.60;2.40;;;19.20;47.00;;;;;;20889;6702;116797;-73
2023/07/14 04:10:30;;;;;;;2.67;2.43;;;19.10;47.10;;;;;;20877;6720;117112;-73
2023/07/14 04:13:06;;;;;;;3.62;2.70;;;19.10;47.20;;;;;;20774;6690;274628;-72
2023/07/14 04:15:41;;;;;;;2.97;2.67;;;19.40;47.10;;;;;;20966;6705;117171;-72
2023/07/14 04:18:17;;;;;;;2.37;2.17;;;19.50;46.80;;;;;;20874;6705;116893;-71
2023/07/14 04:20:53;;;;;;;2.83;2.62;;;19.40;47.00;;;;;;20701;6708;306907;-73
2023/07/14 04:23:28;;;;;;;2.67;2.47;;;19.90;46.50;;;;;;20939;6705;117333;-75
2023/07/14 04:26:07;;;;;;;2.70;2.40;;;20.10;46.00;;;;;;20944;6705;116781;-73
2023/07/14 04:28:41;;;;;;;2.87;2.67;;;20.50;44.70;;;;;;20605;6690;282149;-73
2023/07/14 04:31:17;;;;;;;2.37;2.23;;;20.40;45.00;;;;;;21035;6690;117299;-76
2023/07/14 04:33:52;;;;;;;2.40;2.20;;;20.60;45.10;;;;;;20780;6703;305610;-75
2023/07/14 04:36:29;;;;;;;2.83;2.62;;;21.30;44.40;;;;;;20788;6703;334380;-74
2023/07/14 04:39:06;;;;;;;2.67;2.47;;;21.30;44.40;;;;;;20805;6697;118232;-73
2023/07/14 04:41:41;;;;;;;3.10;2.40;;;21.20;44.30;;;;;;20774;6698;309032;-73
2023/07/14 04:44:17;;;;;;;3.00;2.30;;;21.30;44.20;;;;;;20925;6725;117011;-70
2023/07/14 04:46:52;;;;;;;2.43;2.23;;;21.30;44.20;;;;;;20989;6691;128529;-74
2023/07/14 04:49:28;;;;;;;2.67;2.47;;;21.10;44.60;;;;;;20819;6676;304350;-72
2023/07/14 04:52:04;;;;;;;3.10;2.47;;;21.40;44.40;;;;;;21087;6676;116729;-71
2023/07/14 04:54:40;;;;;;;2.47;2.27;;;21.40;44.70;;;;;;20991;6699;118370;-70
2023/07/14 04:57:25;;;;;;;;;;;;;;;;;;;;;
2023/07/14 04:59:51;;;;;;;2.65;2.45;;;21.10;44.20;;;;;;20778;6691;303822;-70
2023/07/14 05:02:27;;;;;;;2.80;2.50;;;21.70;42.70;;;;;;20819;6689;310063;-72
2023/07/14 05:05:08;;;;;;;3.50;2.60;;;21.70;42.70;;;;;;20970;6704;117903;-73
2023/07/14 05:07:45;;;;;;;2.80;2.60;;;21.30;43.30;;;;;;20941;6689;119427;-73
2023/07/14 05:10:20;;;;;;;2.63;2.43;;;21.20;43.20;;;;;;21040;6689;117778;-73
2023/07/14 05:12:56;;;;;;;4.00;2.77;;;20.90;43.60;;;;;;20657;6734;305797;-72
2023/07/14 05:15:31;;;;;;;3.00;2.70;;;21.20;43.80;;;;;;20778;6704;305185;-71
2023/07/14 05:18:07;;;;;;;2.70;2.50;;;21.50;43.40;;;;;;20605;6719;308651;-74
2023/07/14 05:20:43;;;;;;;2.57;2.37;;;21.90;43.20;;;;;;20957;6700;122493;-73
2023/07/14 05:23:18;;;;;;;2.90;2.70;;;21.70;43.20;;;;;;20788;6700;305889;-72
2023/07/14 05:25:54;;;;;;;3.07;2.57;;;21.90;42.90;;;;;;20965;6700;116996;-74
2023/07/14 05:28:29;;;;;;;2.30;2.20;;;21.80;43.40;;;;;;20794;6734;117834;-76
2023/07/14 05:31:05;;;;;;;3.30;2.30;;;21.50;43.70;;;;;;20980;6709;118098;-73
2023/07/14 05:33:42;;;;;;;2.70;2.50;;;21.70;43.50;;;;;;20671;6730;306977;-75
2023/07/14 05:36:18;;;;;;;3.60;2.33;;;21.70;43.50;;;;;;20889;6734;120664;-72
2023/07/14 05:38:54;;;;;;;2.87;2.67;;;21.80;43.40;;;;;;20516;6729;404774;-73
2023/07/14 05:41:29;;;;;;;3.87;2.62;;;22.10;42.90;;;;;;20765;6706;333749;-72
2023/07/14 05:44:05;;;;;;;3.47;2.80;;;22.60;42.40;;;;;;20708;6723;295683;-72
2023/07/14 05:46:40;;;;;;;2.87;2.60;;;22.90;42.10;;;;;;20650;6739;278925;-72
2023/07/14 05:49:16;;;;;;;4.60;2.50;;;23.10;41.90;;;;;;20722;6791;118057;-71
2023/07/14 05:51:51;;;;;;;2.37;2.27;;;22.80;42.10;;;;;;21037;6690;117254;-71
2023/07/14 05:54:27;;;;;;;4.70;2.50;;;22.50;42.70;;;;;;20712;6729;276473;-71
2023/07/14 05:57:03;;;;;;;2.47;2.37;;;22.60;43.00;;;;;;20850;6734;117381;-72
2023/07/14 05:59:38;;;;;;;2.47;2.37;;;22.60;43.00;;;;;;20930;6722;118062;-75
2023/07/14 06:02:14;;;;;;;2.63;2.43;;;22.50;43.30;;;;;;20762;6706;306833;-72
2023/07/14 06:04:49;;;;;;;2.80;2.60;;;22.70;43.40;;;;;;20964;6706;124051;-72
2023/07/14 06:07:25;;;;;;;2.90;2.60;;;22.60;43.20;;;;;;20680;6724;307871;-72
2023/07/14 06:10:01;;;;;;;3.23;2.50;;;22.80;43.10;;;;;;21048;6680;118810;-72
2023/07/14 06:12:37;;;;;;;2.83;2.53;;;22.90;43.40;;;;;;20785;6695;279875;-72
2023/07/14 06:15:13;;;;;;;3.93;2.77;;;22.90;43.40;;;;;;21059;6679;116886;-72
2023/07/14 06:17:49;;;;;;;3.73;2.27;;;22.90;43.40;;;;;;20990;6680;118728;-72
2023/07/14 06:20:25;;;;;;;2.73;2.53;;;23.10;44.20;;;;;;20848;6680;275166;-71
2023/07/14 06:23:02;;;;;;;2.87;2.63;;;23.00;44.10;;;;;;21043;6680;118744;-72
2023/07/14 06:25:37;;;;;;;4.20;3.10;;;23.30;44.10;;;;;;20768;6705;305409;-71
2023/07/14 06:28:21;;;;;;;4.87;2.67;;;23.80;43.30;;;;;;20776;6676;301149;-71
2023/07/14 06:30:51;;;;;;;3.00;2.70;;;24.60;41.90;;;;;;20877;6667;304136;-73
2023/07/14 06:33:24;;;;;;;4.07;2.57;;;25.50;41.20;;;;;;21109;6668;116628;-72
2023/07/14 06:35:59;;;;;;;5.80;2.30;;;25.90;41.30;;;;;;21115;6668;117612;-71
2023/07/14 06:38:34;;;;;;;3.63;2.30;;;26.00;41.10;;;;;;20933;6668;117016;-75
2023/07/14 06:41:10;;;;;;;2.93;2.63;;;26.30;40.70;;;;;;20910;6668;273165;-73
2023/07/14 06:43:46;;;;;;;2.73;2.40;;;27.20;37.20;;;;;;20911;6668;273379;-71
2023/07/14 06:46:21;;;;;;;3.62;2.42;;;28.20;35.10;;;;;;20897;6668;290746;-73
2023/07/14 06:48:57;;;;;;;6.57;2.50;;;29.00;34.30;;;;;;20921;6668;118140;-73
2023/07/14 06:51:33;;;;;;;3.57;2.20;;;29.00;34.70;;;;;;20981;6682;122491;-72
2023/07/14 06:54:08;;;;;;;2.47;2.27;;;28.90;35.20;;;;;;20835;6683;306532;-72
2023/07/14 06:56:44;;;;;;;2.63;2.27;;;29.10;33.80;;;;;;20828;6696;279283;-73
2023/07/14 06:59:19;;;;;;;2.67;2.10;;;29.50;32.90;;;;;;21061;6696;118164;-70
2023/07/14 07:01:55;;;;;;;4.40;2.20;;;29.50;33.80;;;;;;20793;6696;310693;-72
2023/07/14 07:04:36;;;;;;;3.73;2.20;;;29.70;33.30;;;;;;21111;6664;118177;-71
2023/07/14 07:07:09;;;;;;;3.07;2.70;;;29.50;33.60;;;;;;20876;6664;305394;-71
2023/07/14 07:09:44;;;;;;;2.55;2.33;;;29.60;33.20;;;;;;20861;6669;308139;-71
2023/07/14 07:12:21;;;;;;;2.67;2.40;;;29.80;33.00;;;;;;21031;6681;118932;-72
2023/07/14 07:14:55;;;;;;;3.10;2.50;;;29.50;33.40;;;;;;20869;6668;274484;-72
2023/07/14 07:20:07;;;;;;;3.67;2.37;;;29.80;33.40;;;;;;19458;7227;119908;-72
2023/07/14 07:22:44;;;;;;;3.20;2.53;;;29.60;33.90;;;;;;20613;6765;120196;-72
2023/07/14 07:25:19;;;;;;;3.90;2.70;;;29.20;34.50;;;;;;20799;6697;294698;-71
2023/07/14 07:27:55;;;;;;;3.13;2.10;;;29.40;33.50;;;;;;20897;6705;117235;-72
2023/07/14 07:30:35;;;;;;;3.13;2.40;;;29.30;33.60;;;;;;20888;6664;274139;-72
2023/07/14 07:33:09;;;;;;;3.27;2.40;;;29.40;32.90;;;;;;20889;6664;305093;-73
2023/07/14 07:35:45;;;;;;;5.50;2.70;;;29.80;32.80;;;;;;20893;6664;303833;-71
2023/07/14 07:38:20;;;;;;;4.68;2.42;;;30.10;31.80;;;;;;20785;6664;308622;-71
2023/07/14 07:40:59;;;;;;;3.72;2.37;;;30.40;30.90;;;;;;20808;6684;335649;-75
2023/07/14 07:43:34;;;;;;;2.30;2.10;;;30.60;30.20;;;;;;20983;6705;117813;-72
2023/07/14 07:46:07;;;;;;;2.57;2.23;;;30.30;30.60;;;;;;20979;6706;116905;-73
2023/07/14 07:48:44;;;;;;;3.83;2.40;;;30.00;30.90;;;;;;20785;6706;123326;-73
2023/07/14 07:51:19;;;;;;;3.63;2.00;;;29.70;31.30;;;;;;20755;6709;305736;-73
2023/07/14 07:53:55;;;;;;;2.90;2.20;;;29.80;30.30;;;;;;20764;6706;290253;-72
2023/07/14 07:56:30;;;;;;;4.10;2.10;;;30.20;30.00;;;;;;20978;6706;117950;-72
2023/07/14 07:59:06;;;;;;;3.33;2.00;;;30.10;30.20;;;;;;20804;6726;117674;-75
2023/07/14 08:01:42;;;;;;;2.20;2.07;;;29.90;30.60;;;;;;20763;6709;275164;-75
2023/07/14 08:04:18;;;;;;;2.90;1.90;;;30.00;29.80;;;;;;20957;6715;122548;-76
2023/07/14 08:06:53;;;;;;;4.60;2.33;;;29.90;30.00;;;;;;20745;6709;276052;-75
2023/07/14 08:09:28;;;;;;;3.00;2.20;;;30.10;29.20;;;;;;20754;6714;307793;-76
2023/07/14 08:12:04;;;;;;;2.33;2.10;;;30.50;29.20;;;;;;20943;6720;117762;-75
2023/07/14 08:14:53;;;;;;;3.23;2.20;;;30.40;29.50;;;;;;20633;6745;306178;-75
2023/07/14 08:17:31;;;;;;;3.03;2.33;;;30.60;29.40;;;;;;20862;6739;116895;-74
2023/07/14 08:20:05;;;;;;;3.27;2.20;;;30.50;29.80;;;;;;20665;6739;276830;-75
2023/07/14 08:22:40;;;;;;;2.60;2.40;;;30.60;29.90;;;;;;20906;6724;127766;-74
2023/07/14 08:25:21;;;;;;;2.40;2.20;;;30.60;30.00;;;;;;20643;6745;309620;-73
2023/07/14 08:27:51;;;;;;;3.57;2.33;;;30.80;29.90;;;;;;20585;6739;278261;-71
2023/07/14 08:30:27;;;;;;;4.50;3.40;;;31.20;29.20;;;;;;20970;6709;119771;-72
2023/07/14 08:33:02;;;;;;;2.50;2.30;;;31.00;29.40;;;;;;20946;6709;117837;-72
2023/07/14 08:35:38;;;;;;;2.30;2.10;;;30.70;29.70;;;;;;20712;6709;275666;-72
2023/07/14 08:38:14;;;;;;;2.33;1.93;;;30.80;29.30;;;;;;20885;6708;120248;-76
2023/07/14 08:40:53;;;;;;;2.30;2.10;;;30.70;29.50;;;;;;20744;6708;308127;-72
2023/07/14 08:43:32;;;;;;;2.28;1.95;;;31.00;29.50;;;;;;20757;6709;306363;-74
2023/07/14 08:46:17;;;;;;;3.23;2.00;;;31.30;28.70;;;;;;20756;6709;275765;-73
2023/07/14 08:48:56;;;;;;;3.60;2.00;;;31.70;28.30;;;;;;20040;6812;339884;-72
2023/07/14 08:51:35;;;;;;;3.87;2.10;;;31.80;27.60;;;;;;20804;6685;303973;-72
2023/07/14 08:54:17;;;;;;;2.20;2.00;;;31.70;28.30;;;;;;21007;6685;116991;-71
2023/07/14 08:56:56;;;;;;;2.07;1.87;;;31.60;28.10;;;;;;20979;6694;117179;-73
2023/07/14 08:59:31;;;;;;;2.57;1.90;;;31.20;28.40;;;;;;21032;6694;118851;-72
2023/07/14 09:02:18;;;;;;;2.73;2.00;;;31.10;29.00;;;;;;20704;6727;305573;-73
2023/07/14 09:05:04;;;;;;;2.37;2.20;;;31.10;29.00;;;;;;20732;6709;309462;-73
2023/07/14 09:07:39;;;;;;;4.43;1.90;;;31.40;28.10;;;;;;20533;6764;117247;-73
2023/07/14 09:10:14;;;;;;;2.10;2.00;;;31.30;28.30;;;;;;20986;6704;116937;-73
2023/07/14 09:13:00;;;;;;;2.97;1.60;;;31.00;28.30;;;;;;20963;6704;117384;-73
2023/07/14 09:15:36;;;;;;;3.10;1.90;;;30.90;28.40;;;;;;20815;6689;306519;-72
2023/07/14 09:18:21;;;;;;;4.17;1.73;;;31.10;27.90;;;;;;20898;6704;116699;-73
2023/07/14 09:21:13;;;;;;;2.45;1.80;;;31.20;28.00;;;;;;20682;6775;305755;-73
2023/07/14 09:24:08;;;;;;;3.63;2.00;;;31.50;27.80;;;;;;20729;6719;276195;-77
2023/07/14 09:26:44;;;;;;;4.73;1.90;;;32.00;26.50;;;;;;20658;6734;307317;-73
2023/07/14 09:29:20;;;;;;;2.40;2.07;;;32.40;27.10;;;;;;20592;6775;277290;-73
2023/07/14 09:32:12;;;;;;;5.60;2.10;;;32.70;26.90;;;;;;20768;6704;305536;-74
2023/07/14 09:34:58;;;;;;;2.10;1.80;;;32.80;25.80;;;;;;20706;6719;275830;-73
2023/07/14 09:37:54;;;;;;;3.07;2.00;;;32.90;26.40;;;;;;20662;6719;307839;-73
2023/07/14 09:40:33;;;;;;;5.60;2.00;;;33.00;26.10;;;;;;20969;6708;116765;-72
2023/07/14 09:43:10;;;;;;;2.33;2.00;;;32.80;26.30;;;;;;20899;6726;119119;-74
2023/07/14 09:45:46;;;;;;;2.03;1.70;;;32.30;26.30;;;;;;20870;6733;119604;-72
2023/07/14 09:48:26;;;;;;;2.92;1.60;;;32.00;26.70;;;;;;20662;6703;306939;-69
2023/07/14 09:51:01;;;;;;;2.20;2.00;;;31.80;26.90;;;;;;20794;6812;117255;-72
2023/07/14 09:53:37;;;;;;;1.80;1.70;;;31.70;26.80;;;;;;21019;6694;116832;-73
2023/07/14 09:56:13;;;;;;;2.60;2.10;;;31.50;27.20;;;;;;20968;6708;119490;-73
2023/07/14 09:58:55;;;;;;;4.23;1.90;;;31.20;27.30;;;;;;20848;6694;117297;-73
2023/07/14 10:01:31;;;;;;;2.00;1.80;;;31.10;27.40;;;;;;20969;6709;116730;-73
2023/07/14 10:04:07;;;;;;;2.13;1.73;;;30.90;27.40;;;;;;20747;6714;305350;-73
2023/07/14 10:06:47;;;;;;;1.90;1.80;;;31.20;26.70;;;;;;20941;6714;144364;-72
2023/07/14 10:09:20;;;;;;;2.80;2.00;;;31.20;26.90;;;;;;20513;6785;308477;-73
2023/07/14 10:11:55;;;;;;;2.43;1.80;;;31.40;26.80;;;;;;20954;6714;116893;-73
2023/07/14 10:14:36;;;;;;;2.15;1.92;;;31.40;26.80;;;;;;20784;6699;338043;-74
2023/07/14 10:17:12;;;;;;;3.08;2.00;;;31.50;26.60;;;;;;20761;6699;277155;-72
2023/07/14 10:19:47;;;;;;;2.93;1.77;;;31.70;26.30;;;;;;20960;6714;117310;-74
2023/07/14 10:22:26;;;;;;;2.13;1.80;;;31.60;26.50;;;;;;21003;6699;116871;-72
2023/07/14 10:25:18;;;;;;;2.60;1.77;;;31.40;26.90;;;;;;20694;6684;276038;-71
2023/07/14 10:28:17;;;;;;;1.93;1.70;;;31.70;26.80;;;;;;20540;6773;303324;-76
2023/07/14 10:31:19;;;;;;;1.80;1.70;;;32.10;26.00;;;;;;21004;6744;117158;-76
2023/07/14 10:34:11;;;;;;;7.40;1.70;;;32.00;26.40;;;;;;21029;6688;117410;-72
2023/07/14 10:36:48;;;;;;;2.43;1.87;;;32.00;26.40;;;;;;20720;6688;277793;-72
2023/07/14 10:39:29;;;;;;;2.90;1.60;;;32.00;26.50;;;;;;20949;6690;116700;-71
2023/07/14 10:42:05;;;;;;;2.43;2.00;;;32.10;26.40;;;;;;20666;6702;304404;-71
2023/07/14 10:44:42;;;;;;;1.83;1.62;;;32.70;25.60;;;;;;20486;6688;306460;-71
2023/07/14 10:47:18;;;;;;;2.07;1.77;;;32.70;25.60;;;;;;20725;6703;309748;-73
2023/07/14 10:50:03;;;;;;;2.20;2.00;;;33.00;25.50;;;;;;20743;6684;275203;-71
2023/07/14 10:52:39;;;;;;;1.73;1.60;;;33.10;25.40;;;;;;21009;6684;143010;-73
2023/07/14 10:55:20;;;;;;;1.97;1.80;;;32.80;25.70;;;;;;21023;6688;117443;-72
2023/07/14 10:57:59;;;;;;;2.93;2.00;;;32.60;25.80;;;;;;20910;6702;117411;-71
2023/07/14 11:00:45;;;;;;;3.80;1.90;;;32.30;26.00;;;;;;21025;6684;122956;-73
2023/07/14 11:03:30;;;;;;;1.60;1.50;;;32.00;26.10;;;;;;21033;6684;116980;-72
2023/07/14 11:06:08;;;;;;;2.80;2.00;;;31.70;26.30;;;;;;20816;6684;308873;-73
2023/07/14 11:08:44;;;;;;;2.80;1.60;;;31.90;25.90;;;;;;20629;6687;309002;-71
2023/07/14 11:11:22;;;;;;;2.57;1.83;;;32.10;25.90;;;;;;20826;6684;305889;-70
2023/07/14 11:14:25;;;;;;;2.20;1.93;;;32.30;25.70;;;;;;20832;6684;308977;-71
2023/07/14 11:17:10;;;;;;;2.77;1.60;;;32.40;25.60;;;;;;20970;6699;118627;-72
2023/07/14 11:20:13;;;;;;;2.67;1.70;;;31.70;26.50;;;;;;21046;6684;116902;-74
2023/07/14 11:22:58;;;;;;;1.83;1.67;;;31.70;26.50;;;;;;20977;6699;116819;-73
2023/07/14 11:25:43;;;;;;;3.13;1.80;;;31.50;26.90;;;;;;20925;6714;117550;-72
2023/07/14 11:28:52;;;;;;;2.40;1.93;;;31.40;27.00;;;;;;20872;6699;120574;-73
2023/07/14 11:31:24;;;;;;;1.63;1.53;;;31.20;26.90;;;;;;21032;6694;116968;-72
2023/07/14 11:34:20;;;;;;;2.27;1.80;;;31.50;27.20;;;;;;20710;6723;306872;-71
2023/07/14 11:37:29;;;;;;;2.43;1.90;;;31.50;27.20;;;;;;20946;6709;120447;-72
2023/07/14 11:40:09;;;;;;;1.98;1.80;;;31.50;26.80;;;;;;20795;6694;276444;-72
2023/07/14 11:42:40;;;;;;;2.15;2.03;;;31.70;26.60;;;;;;20715;6711;335334;-72
2023/07/14 11:45:16;;;;;;;2.63;1.90;;;32.00;26.30;;;;;;21011;6694;119479;-72
2023/07/14 11:47:51;;;;;;;2.17;2.00;;;31.90;26.20;;;;;;20824;6729;117059;-72
2023/07/14 11:50:30;;;;;;;1.83;1.53;;;31.70;26.40;;;;;;21013;6688;116898;-72
2023/07/14 11:53:05;;;;;;;3.10;2.80;;;31.50;26.50;;;;;;20959;6702;117672;-72
2023/07/14 11:55:41;;;;;;;1.90;1.80;;;31.20;26.60;;;;;;21037;6684;116857;-72
2023/07/14 11:58:24;;;;;;;2.20;1.93;;;31.10;26.90;;;;;;20667;6699;311139;-72
2023/07/14 12:01:06;;;;;;;1.70;1.60;;;31.40;26.70;;;;;;20999;6684;117268;-72
2023/07/14 12:03:49;;;;;;;3.93;1.87;;;31.50;26.80;;;;;;21046;6684;117829;-74
2023/07/14 12:06:25;;;;;;;2.77;1.80;;;31.40;27.00;;;;;;20981;6706;116884;-76
2023/07/14 12:09:02;;;;;;;1.97;1.87;;;31.30;27.10;;;;;;20791;6746;117158;-79
2023/07/14 12:11:42;;;;;;;2.70;1.92;;;31.30;27.20;;;;;;21005;6701;117630;-73
2023/07/14 12:14:33;;;;;;;4.80;2.00;;;31.40;27.10;;;;;;20822;6684;276112;-74
2023/07/14 12:17:36;;;;;;;2.43;2.07;;;32.20;26.00;;;;;;20762;6693;278740;-74
2023/07/14 12:20:11;;;;;;;3.00;1.93;;;32.20;26.00;;;;;;21008;6694;116790;-75
2023/07/14 12:22:49;;;;;;;2.05;1.83;;;32.10;25.90;;;;;;20772;6694;334371;-74
2023/07/14 12:25:31;;;;;;;2.13;1.87;;;32.20;26.10;;;;;;20924;6767;117213;-74
2023/07/14 12:27:58;;;;;;;2.93;1.73;;;32.10;26.10;;;;;;20868;6708;119550;-75
2023/07/14 12:30:34;;;;;;;2.10;1.40;;;31.90;26.40;;;;;;20965;6709;117406;-75
2023/07/14 12:33:13;;;;;;;2.10;1.60;;;31.90;26.60;;;;;;20764;6726;118580;-77
2023/07/14 12:35:52;;;;;;;1.70;1.60;;;31.90;26.30;;;;;;20958;6713;117376;-74
2023/07/14 12:38:28;;;;;;;2.00;1.80;;;31.80;26.40;;;;;;20622;6711;288940;-73
2023/07/14 12:41:03;;;;;;;3.00;1.87;;;32.00;26.80;;;;;;20722;6696;304677;-79
2023/07/14 12:43:46;;;;;;;1.70;1.50;;;32.40;25.80;;;;;;20960;6711;116902;-74
2023/07/14 12:46:34;;;;;;;3.12;1.75;;;32.40;25.60;;;;;;20743;6711;320789;-73
2023/07/14 12:49:17;;;;;;;2.00;1.62;;;32.50;25.50;;;;;;20509;6711;341763;-74
2023/07/14 12:51:52;;;;;;;1.57;1.40;;;32.80;24.90;;;;;;21034;6676;116213;-72
2023/07/14 12:54:27;;;;;;;1.70;1.60;;;32.70;25.30;;;;;;21053;6676;116996;-74
2023/07/14 12:57:04;;;;;;;1.70;1.60;;;32.50;25.60;;;;;;20930;6676;116813;-74
2023/07/14 12:59:40;;;;;;;2.53;1.60;;;32.40;26.10;;;;;;21026;6678;118611;-73
2023/07/14 13:02:17;;;;;;;2.23;1.90;;;32.20;25.90;;;;;;20824;6678;274717;-73
2023/07/14 13:04:52;;;;;;;2.33;2.00;;;32.30;24.80;;;;;;21002;6678;116737;-73
2023/07/14 13:07:28;;;;;;;3.20;1.80;;;32.10;24.90;;;;;;20854;6664;289839;-73
2023/07/14 13:10:08;;;;;;;2.50;1.70;;;32.00;25.20;;;;;;21115;6664;116694;-72
2023/07/14 13:12:43;;;;;;;1.77;1.67;;;32.00;25.20;;;;;;21063;6664;117137;-74
2023/07/14 13:15:20;;;;;;;2.20;1.90;;;31.90;25.50;;;;;;20887;6664;304346;-73
2023/07/14 13:17:55;;;;;;;2.30;2.10;;;31.90;25.50;;;;;;20823;6664;304247;-73
2023/07/14 13:20:31;;;;;;;1.87;1.77;;;32.30;25.80;;;;;;20870;6664;304203;-74
2023/07/14 13:23:10;;;;;;;2.30;2.10;;;32.70;25.60;;;;;;20878;6664;275114;-72
2023/07/14 13:25:56;;;;;;;1.60;1.50;;;32.70;25.60;;;;;;21107;6664;116568;-71
2023/07/14 13:28:37;;;;;;;2.15;1.80;;;32.50;25.50;;;;;;20788;6664;317038;-73
2023/07/14 13:31:14;;;;;;;2.10;1.90;;;32.40;25.20;;;;;;21092;6664;116922;-73
2023/07/14 15:10:45;;;;;;;2.15;2.05;;;32.80;25.60;;;;;;20658;6546;277245;-73
2023/07/14 15:13:20;;;;;;;2.47;2.33;;;32.80;25.50;;;;;;20671;6825;116469;-74